sensor_id;sensor_type;location;lat;lon;timestamp;P1;durP1;ratioP1;P2;durP2;ratioP2
13609;SDS011;6876;50.788;4.940;2023-07-13T00:01:35;24.23;;;22.70;;
13609;SDS011;6876;50.788;4.940;2023-07-13T00:04:24;19.27;;;18.03;;
13609;SDS011;6876;50.788;4.940;2023-07-13T00:07:12;17.47;;;16.20;;
13609;SDS011;6876;50.788;4.940;2023-07-13T00:10:01;18.43;;;17.27;;
13609;SDS011;6876;50.788;4.940;2023-07-13T00:12:49;14.80;;;13.63;;
13609;SDS011;6876;50.788;4.940;2023-07-13T00:15:37;11.73;;;10.63;;
13609;SDS011;6876;50.788;4.940;2023-07-13T00:18:24;15.77;;;14.40;;
13609;SDS011;6876;50.788;4.940;2023-07-13T00:21:11;16.00;;;14.90;;
13609;SDS011;6876;50.788;4.940;2023-07-13T00:23:59;14.37;;;13.20;;
13609;SDS011;6876;50.788;4.940;2023-07-13T00:26:48;12.00;;;11.00;;
13609;SDS011;6876;50.788;4.940;2023-07-13T00:29:35;18.33;;;16.97;;
13609;SDS011;6876;50.788;4.940;2023-07-13T00:32:23;22.07;;;20.57;;
13609;SDS011;6876;50.788;4.940;2023-07-13T00:35:12;24.47;;;22.67;;
13609;SDS011;6876;50.788;4.940;2023-07-13T00:38:01;12.30;;;11.27;;
13609;SDS011;6876;50.788;4.940;2023-07-13T00:40:48;10.70;;;9.80;;
13609;SDS011;6876;50.788;4.940;2023-07-13T00:43:37;14.20;;;10.07;;
13609;SDS011;6876;50.788;4.940;2023-07-13T00:46:25;11.73;;;8.13;;
13609;SDS011;6876;50.788;4.940;2023-07-13T00:49:15;7.70;;;7.00;;
13609;SDS011;6876;50.788;4.940;2023-07-13T00:52:05;9.23;;;8.33;;
13609;SDS011;6876;50.788;4.940;2023-07-13T00:54:54;6.67;;;4.53;;
13609;SDS011;6876;50.788;4.940;2023-07-13T00:57:42;6.73;;;4.63;;
13609;SDS011;6876;50.788;4.940;2023-07-13T01:00:32;5.77;;;3.20;;
13609;SDS011;6876;50.788;4.940;2023-07-13T01:03:22;7.57;;;3.63;;
13609;SDS011;6876;50.788;4.940;2023-07-13T01:06:09;8.37;;;3.93;;
13609;SDS011;6876;50.788;4.940;2023-07-13T01:08:57;8.53;;;3.63;;
13609;SDS011;6876;50.788;4.940;2023-07-13T01:11:46;7.60;;;3.93;;
13609;SDS011;6876;50.788;4.940;2023-07-13T01:14:33;7.00;;;3.97;;
13609;SDS011;6876;50.788;4.940;2023-07-13T01:17:22;7.00;;;4.17;;
13609;SDS011;6876;50.788;4.940;2023-07-13T01:20:09;8.80;;;5.47;;
13609;SDS011;6876;50.788;4.940;2023-07-13T01:22:57;6.17;;;5.47;;
13609;SDS011;6876;50.788;4.940;2023-07-13T01:25:45;8.80;;;5.13;;
13609;SDS011;6876;50.788;4.940;2023-07-13T01:28:32;7.47;;;4.17;;
13609;SDS011;6876;50.788;4.940;2023-07-13T01:31:23;7.73;;;4.23;;
13609;SDS011;6876;50.788;4.940;2023-07-13T01:34:10;9.33;;;3.50;;
13609;SDS011;6876;50.788;4.940;2023-07-13T01:36:57;7.27;;;3.10;;
13609;SDS011;6876;50.788;4.940;2023-07-13T01:39:46;5.73;;;2.90;;
13609;SDS011;6876;50.788;4.940;2023-07-13T01:42:34;8.70;;;3.47;;
13609;SDS011;6876;50.788;4.940;2023-07-13T01:45:22;7.40;;;3.30;;
13609;SDS011;6876;50.788;4.940;2023-07-13T01:48:09;10.27;;;3.13;;
13609;SDS011;6876;50.788;4.940;2023-07-13T01:50:57;8.47;;;3.87;;
13609;SDS011;6876;50.788;4.940;2023-07-13T01:53:44;8.57;;;4.50;;
13609;SDS011;6876;50.788;4.940;2023-07-13T01:56:33;6.37;;;3.13;;
13609;SDS011;6876;50.788;4.940;2023-07-13T01:59:20;6.67;;;3.60;;
13609;SDS011;6876;50.788;4.940;2023-07-13T02:02:07;8.73;;;3.67;;
13609;SDS011;6876;50.788;4.940;2023-07-13T02:04:54;7.30;;;3.20;;
13609;SDS011;6876;50.788;4.940;2023-07-13T02:07:42;6.40;;;3.10;;
13609;SDS011;6876;50.788;4.940;2023-07-13T02:10:29;10.37;;;3.20;;
13609;SDS011;6876;50.788;4.940;2023-07-13T02:13:18;9.53;;;2.97;;
13609;SDS011;6876;50.788;4.940;2023-07-13T02:16:05;6.20;;;3.00;;
13609;SDS011;6876;50.788;4.940;2023-07-13T02:18:52;9.63;;;3.93;;
13609;SDS011;6876;50.788;4.940;2023-07-13T02:21:41;6.60;;;3.30;;
13609;SDS011;6876;50.788;4.940;2023-07-13T02:24:28;6.17;;;3.90;;
13609;SDS011;6876;50.788;4.940;2023-07-13T02:27:15;9.17;;;4.30;;
13609;SDS011;6876;50.788;4.940;2023-07-13T02:30:04;8.67;;;3.90;;
13609;SDS011;6876;50.788;4.940;2023-07-13T02:32:52;9.47;;;5.10;;
13609;SDS011;6876;50.788;4.940;2023-07-13T02:35:40;10.00;;;4.13;;
13609;SDS011;6876;50.788;4.940;2023-07-13T02:38:27;11.13;;;4.30;;
13609;SDS011;6876;50.788;4.940;2023-07-13T02:41:14;10.17;;;4.33;;
13609;SDS011;6876;50.788;4.940;2023-07-13T02:44:02;9.23;;;4.50;;
13609;SDS011;6876;50.788;4.940;2023-07-13T02:46:50;11.60;;;4.23;;
13609;SDS011;6876;50.788;4.940;2023-07-13T02:49:38;8.27;;;3.70;;
13609;SDS011;6876;50.788;4.940;2023-07-13T02:52:26;8.50;;;3.90;;
13609;SDS011;6876;50.788;4.940;2023-07-13T02:55:14;11.83;;;3.50;;
13609;SDS011;6876;50.788;4.940;2023-07-13T02:58:01;7.10;;;3.40;;
13609;SDS011;6876;50.788;4.940;2023-07-13T03:00:48;14.00;;;3.80;;
13609;SDS011;6876;50.788;4.940;2023-07-13T03:03:37;9.27;;;3.57;;
13609;SDS011;6876;50.788;4.940;2023-07-13T03:06:25;8.00;;;3.53;;
13609;SDS011;6876;50.788;4.940;2023-07-13T03:09:15;7.20;;;3.60;;
13609;SDS011;6876;50.788;4.940;2023-07-13T03:12:02;9.87;;;3.10;;
13609;SDS011;6876;50.788;4.940;2023-07-13T03:14:50;7.47;;;2.87;;
13609;SDS011;6876;50.788;4.940;2023-07-13T03:17:37;14.13;;;3.30;;
13609;SDS011;6876;50.788;4.940;2023-07-13T03:20:26;10.57;;;3.13;;
13609;SDS011;6876;50.788;4.940;2023-07-13T03:23:13;7.73;;;2.90;;
13609;SDS011;6876;50.788;4.940;2023-07-13T03:26:01;9.20;;;3.33;;
13609;SDS011;6876;50.788;4.940;2023-07-13T03:28:50;8.50;;;3.10;;
13609;SDS011;6876;50.788;4.940;2023-07-13T03:31:37;8.80;;;2.80;;
13609;SDS011;6876;50.788;4.940;2023-07-13T03:34:24;7.70;;;2.57;;
13609;SDS011;6876;50.788;4.940;2023-07-13T03:37:13;10.63;;;2.83;;
13609;SDS011;6876;50.788;4.940;2023-07-13T03:40:00;9.70;;;2.43;;
13609;SDS011;6876;50.788;4.940;2023-07-13T03:42:47;10.40;;;3.00;;
13609;SDS011;6876;50.788;4.940;2023-07-13T03:45:35;10.57;;;3.37;;
13609;SDS011;6876;50.788;4.940;2023-07-13T03:48:24;8.37;;;4.03;;
13609;SDS011;6876;50.788;4.940;2023-07-13T03:51:11;8.50;;;3.83;;
13609;SDS011;6876;50.788;4.940;2023-07-13T03:54:02;9.37;;;3.70;;
13609;SDS011;6876;50.788;4.940;2023-07-13T03:56:50;8.90;;;3.50;;
13609;SDS011;6876;50.788;4.940;2023-07-13T03:59:37;13.57;;;4.03;;
13609;SDS011;6876;50.788;4.940;2023-07-13T04:02:26;10.47;;;4.10;;
13609;SDS011;6876;50.788;4.940;2023-07-13T04:05:13;8.60;;;4.00;;
13609;SDS011;6876;50.788;4.940;2023-07-13T04:08:00;9.13;;;4.20;;
13609;SDS011;6876;50.788;4.940;2023-07-13T04:10:49;10.70;;;4.53;;
13609;SDS011;6876;50.788;4.940;2023-07-13T04:13:36;7.97;;;4.40;;
13609;SDS011;6876;50.788;4.940;2023-07-13T04:16:23;9.97;;;3.70;;
13609;SDS011;6876;50.788;4.940;2023-07-13T04:19:11;11.90;;;4.10;;
13609;SDS011;6876;50.788;4.940;2023-07-13T04:21:59;12.13;;;4.63;;
13609;SDS011;6876;50.788;4.940;2023-07-13T04:24:46;11.60;;;4.10;;
13609;SDS011;6876;50.788;4.940;2023-07-13T04:27:35;7.83;;;3.37;;
13609;SDS011;6876;50.788;4.940;2023-07-13T04:30:22;11.47;;;3.30;;
13609;SDS011;6876;50.788;4.940;2023-07-13T04:33:10;8.97;;;2.97;;
13609;SDS011;6876;50.788;4.940;2023-07-13T04:35:57;7.97;;;3.00;;
13609;SDS011;6876;50.788;4.940;2023-07-13T04:38:45;8.10;;;2.67;;
13609;SDS011;6876;50.788;4.940;2023-07-13T04:41:32;12.57;;;3.30;;
13609;SDS011;6876;50.788;4.940;2023-07-13T04:44:20;10.07;;;3.10;;
13609;SDS011;6876;50.788;4.940;2023-07-13T04:47:08;7.70;;;2.70;;
13609;SDS011;6876;50.788;4.940;2023-07-13T04:49:55;10.53;;;2.80;;
13609;SDS011;6876;50.788;4.940;2023-07-13T04:52:43;13.90;;;3.70;;
13609;SDS011;6876;50.788;4.940;2023-07-13T04:55:30;14.30;;;3.40;;
13609;SDS011;6876;50.788;4.940;2023-07-13T04:58:18;8.50;;;3.50;;
13609;SDS011;6876;50.788;4.940;2023-07-13T05:01:06;13.30;;;3.47;;
13609;SDS011;6876;50.788;4.940;2023-07-13T05:03:54;11.40;;;3.10;;
13609;SDS011;6876;50.788;4.940;2023-07-13T05:06:44;9.33;;;3.17;;
13609;SDS011;6876;50.788;4.940;2023-07-13T05:09:31;11.13;;;3.50;;
13609;SDS011;6876;50.788;4.940;2023-07-13T05:12:18;11.87;;;3.53;;
13609;SDS011;6876;50.788;4.940;2023-07-13T05:15:06;14.80;;;3.77;;
13609;SDS011;6876;50.788;4.940;2023-07-13T05:17:55;12.07;;;4.40;;
13609;SDS011;6876;50.788;4.940;2023-07-13T05:20:42;8.20;;;3.47;;
13609;SDS011;6876;50.788;4.940;2023-07-13T05:23:29;11.77;;;3.50;;
13609;SDS011;6876;50.788;4.940;2023-07-13T05:26:17;9.87;;;3.47;;
13609;SDS011;6876;50.788;4.940;2023-07-13T05:29:06;10.67;;;3.27;;
13609;SDS011;6876;50.788;4.940;2023-07-13T05:31:53;10.47;;;3.50;;
13609;SDS011;6876;50.788;4.940;2023-07-13T05:34:42;12.07;;;3.60;;
13609;SDS011;6876;50.788;4.940;2023-07-13T05:37:29;8.50;;;3.27;;
13609;SDS011;6876;50.788;4.940;2023-07-13T05:40:16;12.13;;;4.53;;
13609;SDS011;6876;50.788;4.940;2023-07-13T05:43:03;11.00;;;4.20;;
13609;SDS011;6876;50.788;4.940;2023-07-13T05:45:52;9.63;;;4.50;;
13609;SDS011;6876;50.788;4.940;2023-07-13T05:48:40;11.37;;;4.90;;
13609;SDS011;6876;50.788;4.940;2023-07-13T05:51:29;11.53;;;5.27;;
13609;SDS011;6876;50.788;4.940;2023-07-13T05:54:16;16.97;;;6.97;;
13609;SDS011;6876;50.788;4.940;2023-07-13T05:57:03;13.73;;;5.73;;
13609;SDS011;6876;50.788;4.940;2023-07-13T05:59:51;10.30;;;6.13;;
13609;SDS011;6876;50.788;4.940;2023-07-13T06:02:38;13.13;;;8.10;;
13609;SDS011;6876;50.788;4.940;2023-07-13T06:05:25;12.83;;;6.87;;
13609;SDS011;6876;50.788;4.940;2023-07-13T06:08:15;11.20;;;5.63;;
13609;SDS011;6876;50.788;4.940;2023-07-13T06:11:03;12.47;;;4.70;;
13609;SDS011;6876;50.788;4.940;2023-07-13T06:13:51;14.07;;;5.47;;
13609;SDS011;6876;50.788;4.940;2023-07-13T06:16:39;14.23;;;5.10;;
13609;SDS011;6876;50.788;4.940;2023-07-13T06:19:27;10.03;;;4.57;;
13609;SDS011;6876;50.788;4.940;2023-07-13T06:22:15;11.77;;;4.47;;
13609;SDS011;6876;50.788;4.940;2023-07-13T06:25:04;10.30;;;3.83;;
13609;SDS011;6876;50.788;4.940;2023-07-13T06:27:51;11.15;;;4.30;;
13609;SDS011;6876;50.788;4.940;2023-07-13T06:30:39;11.20;;;3.80;;
13609;SDS011;6876;50.788;4.940;2023-07-13T06:33:26;9.27;;;4.05;;
13609;SDS011;6876;50.788;4.940;2023-07-13T06:36:13;8.98;;;3.97;;
13609;SDS011;6876;50.788;4.940;2023-07-13T06:39:01;9.90;;;3.57;;
13609;SDS011;6876;50.788;4.940;2023-07-13T06:41:49;14.25;;;4.00;;
13609;SDS011;6876;50.788;4.940;2023-07-13T06:44:37;11.07;;;3.97;;
13609;SDS011;6876;50.788;4.940;2023-07-13T06:47:24;11.63;;;4.50;;
13609;SDS011;6876;50.788;4.940;2023-07-13T06:50:11;11.27;;;4.45;;
13609;SDS011;6876;50.788;4.940;2023-07-13T06:52:58;9.63;;;4.40;;
13609;SDS011;6876;50.788;4.940;2023-07-13T06:55:46;17.43;;;4.60;;
13609;SDS011;6876;50.788;4.940;2023-07-13T06:58:35;10.67;;;4.10;;
13609;SDS011;6876;50.788;4.940;2023-07-13T07:01:22;15.10;;;4.32;;
13609;SDS011;6876;50.788;4.940;2023-07-13T07:04:09;9.95;;;4.05;;
13609;SDS011;6876;50.788;4.940;2023-07-13T07:06:56;9.20;;;4.30;;
13609;SDS011;6876;50.788;4.940;2023-07-13T07:09:44;13.25;;;5.20;;
13609;SDS011;6876;50.788;4.940;2023-07-13T07:12:32;12.82;;;5.55;;
13609;SDS011;6876;50.788;4.940;2023-07-13T07:15:20;13.20;;;4.05;;
13609;SDS011;6876;50.788;4.940;2023-07-13T07:18:08;10.15;;;4.68;;
13609;SDS011;6876;50.788;4.940;2023-07-13T07:20:55;11.20;;;9.95;;
13609;SDS011;6876;50.788;4.940;2023-07-13T07:26:32;15.43;;;10.70;;
13609;SDS011;6876;50.788;4.940;2023-07-13T07:29:21;12.05;;;10.82;;
13609;SDS011;6876;50.788;4.940;2023-07-13T07:32:12;20.63;;;18.65;;
13609;SDS011;6876;50.788;4.940;2023-07-13T07:35:00;14.68;;;9.93;;
13609;SDS011;6876;50.788;4.940;2023-07-13T07:37:47;14.82;;;9.32;;
13609;SDS011;6876;50.788;4.940;2023-07-13T07:40:36;10.25;;;5.78;;
13609;SDS011;6876;50.788;4.940;2023-07-13T07:43:23;20.02;;;17.83;;
13609;SDS011;6876;50.788;4.940;2023-07-13T07:46:10;14.38;;;11.23;;
13609;SDS011;6876;50.788;4.940;2023-07-13T07:48:59;15.55;;;10.10;;
13609;SDS011;6876;50.788;4.940;2023-07-13T07:51:46;18.75;;;17.23;;
13609;SDS011;6876;50.788;4.940;2023-07-13T07:54:34;63.28;;;59.60;;
13609;SDS011;6876;50.788;4.940;2023-07-13T07:57:21;100.38;;;94.90;;
13609;SDS011;6876;50.788;4.940;2023-07-13T08:00:09;40.50;;;37.55;;
13609;SDS011;6876;50.788;4.940;2023-07-13T08:02:59;88.63;;;83.55;;
13609;SDS011;6876;50.788;4.940;2023-07-13T08:05:47;102.53;;;96.93;;
13609;SDS011;6876;50.788;4.940;2023-07-13T08:08:35;26.35;;;24.20;;
13609;SDS011;6876;50.788;4.940;2023-07-13T08:11:22;31.08;;;28.60;;
13609;SDS011;6876;50.788;4.940;2023-07-13T08:14:10;47.08;;;44.38;;
13609;SDS011;6876;50.788;4.940;2023-07-13T08:16:57;31.33;;;29.05;;
13609;SDS011;6876;50.788;4.940;2023-07-13T08:19:44;53.90;;;50.42;;
13609;SDS011;6876;50.788;4.940;2023-07-13T08:22:33;130.60;;;124.03;;
13609;SDS011;6876;50.788;4.940;2023-07-13T08:25:20;63.67;;;59.88;;
13609;SDS011;6876;50.788;4.940;2023-07-13T08:28:08;169.82;;;161.25;;
13609;SDS011;6876;50.788;4.940;2023-07-13T08:30:59;185.75;;;176.77;;
13609;SDS011;6876;50.788;4.940;2023-07-13T08:33:47;179.68;;;171.07;;
13609;SDS011;6876;50.788;4.940;2023-07-13T08:36:34;89.32;;;84.38;;
13609;SDS011;6876;50.788;4.940;2023-07-13T08:39:24;266.73;;;253.30;;
13609;SDS011;6876;50.788;4.940;2023-07-13T08:42:18;444.75;;;422.90;;
13609;SDS011;6876;50.788;4.940;2023-07-13T08:45:20;292.30;;;279.02;;
13609;SDS011;6876;50.788;4.940;2023-07-13T08:48:09;168.15;;;159.90;;
13609;SDS011;6876;50.788;4.940;2023-07-13T08:51:03;236.73;;;225.13;;
13609;SDS011;6876;50.788;4.940;2023-07-13T08:53:57;203.93;;;194.32;;
13609;SDS011;6876;50.788;4.940;2023-07-13T08:56:48;230.82;;;219.85;;
13609;SDS011;6876;50.788;4.940;2023-07-13T08:59:39;50.72;;;47.63;;
13609;SDS011;6876;50.788;4.940;2023-07-13T09:02:27;42.35;;;39.70;;
13609;SDS011;6876;50.788;4.940;2023-07-13T09:05:25;82.95;;;78.43;;
13609;SDS011;6876;50.788;4.940;2023-07-13T09:08:21;260.27;;;248.25;;
13609;SDS011;6876;50.788;4.940;2023-07-13T09:11:26;344.83;;;328.33;;
13609;SDS011;6876;50.788;4.940;2023-07-13T09:14:32;298.02;;;284.02;;
13609;SDS011;6876;50.788;4.940;2023-07-13T09:17:24;163.35;;;155.68;;
13609;SDS011;6876;50.788;4.940;2023-07-13T09:20:25;128.20;;;121.57;;
13609;SDS011;6876;50.788;4.940;2023-07-13T09:23:16;84.80;;;80.10;;
13609;SDS011;6876;50.788;4.940;2023-07-13T09:26:07;106.78;;;101.35;;
13609;SDS011;6876;50.788;4.940;2023-07-13T09:28:59;240.55;;;229.75;;
13609;SDS011;6876;50.788;4.940;2023-07-13T09:31:58;121.88;;;115.75;;
13609;SDS011;6876;50.788;4.940;2023-07-13T09:34:50;6.75;;;6.15;;
13609;SDS011;6876;50.788;4.940;2023-07-13T09:37:38;7.47;;;3.72;;
13609;SDS011;6876;50.788;4.940;2023-07-13T09:40:28;6.85;;;2.53;;
13609;SDS011;6876;50.788;4.940;2023-07-13T09:43:23;23.08;;;21.10;;
13609;SDS011;6876;50.788;4.940;2023-07-13T09:46:19;6.68;;;5.72;;
13609;SDS011;6876;50.788;4.940;2023-07-13T09:49:10;8.63;;;7.22;;
13609;SDS011;6876;50.788;4.940;2023-07-13T09:51:58;23.13;;;21.33;;
13609;SDS011;6876;50.788;4.940;2023-07-13T09:54:48;11.90;;;10.80;;
13609;SDS011;6876;50.788;4.940;2023-07-13T09:57:38;19.60;;;18.10;;
13609;SDS011;6876;50.788;4.940;2023-07-13T10:00:33;11.80;;;10.60;;
13609;SDS011;6876;50.788;4.940;2023-07-13T10:03:22;10.00;;;4.10;;
13609;SDS011;6876;50.788;4.940;2023-07-13T10:06:13;5.70;;;2.72;;
13609;SDS011;6876;50.788;4.940;2023-07-13T10:09:02;8.00;;;1.98;;
13609;SDS011;6876;50.788;4.940;2023-07-13T10:11:49;5.85;;;1.88;;
13609;SDS011;6876;50.788;4.940;2023-07-13T10:14:37;7.03;;;2.25;;
13609;SDS011;6876;50.788;4.940;2023-07-13T10:17:26;6.60;;;2.10;;
13609;SDS011;6876;50.788;4.940;2023-07-13T10:20:17;7.45;;;2.30;;
13609;SDS011;6876;50.788;4.940;2023-07-13T10:23:08;8.52;;;2.28;;
13609;SDS011;6876;50.788;4.940;2023-07-13T10:26:01;7.03;;;2.28;;
13609;SDS011;6876;50.788;4.940;2023-07-13T10:28:52;5.22;;;2.20;;
13609;SDS011;6876;50.788;4.940;2023-07-13T10:31:44;11.70;;;2.33;;
13609;SDS011;6876;50.788;4.940;2023-07-13T10:34:33;9.52;;;3.30;;
13609;SDS011;6876;50.788;4.940;2023-07-13T10:37:21;11.93;;;10.85;;
13609;SDS011;6876;50.788;4.940;2023-07-13T10:40:14;6.40;;;3.55;;
13609;SDS011;6876;50.788;4.940;2023-07-13T10:43:06;5.05;;;3.72;;
13609;SDS011;6876;50.788;4.940;2023-07-13T10:46:05;6.03;;;3.53;;
13609;SDS011;6876;50.788;4.940;2023-07-13T10:48:56;8.73;;;7.28;;
13609;SDS011;6876;50.788;4.940;2023-07-13T10:51:45;15.32;;;13.80;;
13609;SDS011;6876;50.788;4.940;2023-07-13T10:54:33;6.78;;;6.18;;
13609;SDS011;6876;50.788;4.940;2023-07-13T10:57:23;11.95;;;7.85;;
13609;SDS011;6876;50.788;4.940;2023-07-13T11:00:15;13.90;;;10.82;;
13609;SDS011;6876;50.788;4.940;2023-07-13T11:03:03;9.00;;;8.18;;
13609;SDS011;6876;50.788;4.940;2023-07-13T11:05:51;6.15;;;4.82;;
13609;SDS011;6876;50.788;4.940;2023-07-13T11:08:54;6.78;;;2.65;;
13609;SDS011;6876;50.788;4.940;2023-07-13T11:11:43;6.57;;;2.42;;
13609;SDS011;6876;50.788;4.940;2023-07-13T11:14:34;5.43;;;2.10;;
13609;SDS011;6876;50.788;4.940;2023-07-13T11:17:29;8.43;;;1.83;;
13609;SDS011;6876;50.788;4.940;2023-07-13T11:20:31;7.22;;;1.75;;
13609;SDS011;6876;50.788;4.940;2023-07-13T11:23:28;15.50;;;2.88;;
13609;SDS011;6876;50.788;4.940;2023-07-13T11:29:32;5.47;;;2.70;;
13609;SDS011;6876;50.788;4.940;2023-07-13T11:32:24;3.95;;;1.65;;
13609;SDS011;6876;50.788;4.940;2023-07-13T11:35:17;5.45;;;2.20;;
13609;SDS011;6876;50.788;4.940;2023-07-13T11:38:12;5.22;;;2.40;;
13609;SDS011;6876;50.788;4.940;2023-07-13T11:41:03;6.75;;;1.85;;
13609;SDS011;6876;50.788;4.940;2023-07-13T11:43:54;9.80;;;2.60;;
13609;SDS011;6876;50.788;4.940;2023-07-13T11:46:50;6.90;;;2.70;;
13609;SDS011;6876;50.788;4.940;2023-07-13T11:49:43;9.20;;;2.70;;
13609;SDS011;6876;50.788;4.940;2023-07-13T11:52:33;6.32;;;1.85;;
13609;SDS011;6876;50.788;4.940;2023-07-13T11:55:22;8.35;;;1.92;;
13609;SDS011;6876;50.788;4.940;2023-07-13T11:58:10;5.35;;;2.22;;
13609;SDS011;6876;50.788;4.940;2023-07-13T12:00:58;4.97;;;1.80;;
13609;SDS011;6876;50.788;4.940;2023-07-13T12:03:49;7.55;;;2.10;;
13609;SDS011;6876;50.788;4.940;2023-07-13T12:06:37;7.60;;;3.30;;
13609;SDS011;6876;50.788;4.940;2023-07-13T12:09:27;6.57;;;1.40;;
13609;SDS011;6876;50.788;4.940;2023-07-13T12:12:16;6.03;;;1.80;;
13609;SDS011;6876;50.788;4.940;2023-07-13T12:15:05;6.28;;;3.58;;
13609;SDS011;6876;50.788;4.940;2023-07-13T12:17:53;6.07;;;1.83;;
13609;SDS011;6876;50.788;4.940;2023-07-13T12:20:43;4.63;;;1.85;;
13609;SDS011;6876;50.788;4.940;2023-07-13T12:23:32;4.53;;;1.48;;
13609;SDS011;6876;50.788;4.940;2023-07-13T12:26:21;3.63;;;1.40;;
13609;SDS011;6876;50.788;4.940;2023-07-13T12:29:11;8.70;;;1.58;;
13609;SDS011;6876;50.788;4.940;2023-07-13T12:32:02;6.28;;;1.67;;
13609;SDS011;6876;50.788;4.940;2023-07-13T12:34:55;4.95;;;1.17;;
13609;SDS011;6876;50.788;4.940;2023-07-13T12:38:01;2.47;;;1.20;;
13609;SDS011;6876;50.788;4.940;2023-07-13T12:40:49;2.78;;;1.10;;
13609;SDS011;6876;50.788;4.940;2023-07-13T12:43:37;2.50;;;1.38;;
13609;SDS011;6876;50.788;4.940;2023-07-13T12:46:24;3.88;;;1.30;;
13609;SDS011;6876;50.788;4.940;2023-07-13T12:49:15;4.45;;;1.38;;
13609;SDS011;6876;50.788;4.940;2023-07-13T12:52:03;2.72;;;1.23;;
13609;SDS011;6876;50.788;4.940;2023-07-13T12:55:04;3.80;;;1.70;;
13609;SDS011;6876;50.788;4.940;2023-07-13T12:57:56;3.13;;;1.58;;
13609;SDS011;6876;50.788;4.940;2023-07-13T13:00:48;5.03;;;1.27;;
13609;SDS011;6876;50.788;4.940;2023-07-13T13:03:38;3.20;;;1.60;;
13609;SDS011;6876;50.788;4.940;2023-07-13T13:06:27;4.70;;;1.58;;
13609;SDS011;6876;50.788;4.940;2023-07-13T13:09:16;2.60;;;1.38;;
13609;SDS011;6876;50.788;4.940;2023-07-13T13:12:07;2.72;;;1.10;;
13609;SDS011;6876;50.788;4.940;2023-07-13T13:14:55;1.95;;;1.13;;
13609;SDS011;6876;50.788;4.940;2023-07-13T13:17:42;3.20;;;1.35;;
13609;SDS011;6876;50.788;4.940;2023-07-13T13:20:30;4.72;;;1.23;;
13609;SDS011;6876;50.788;4.940;2023-07-13T13:23:18;1.73;;;1.25;;
13609;SDS011;6876;50.788;4.940;2023-07-13T13:26:08;2.95;;;1.20;;
13609;SDS011;6876;50.788;4.940;2023-07-13T13:28:58;3.28;;;1.10;;
13609;SDS011;6876;50.788;4.940;2023-07-13T13:31:45;3.70;;;1.30;;
13609;SDS011;6876;50.788;4.940;2023-07-13T13:34:33;4.15;;;1.38;;
13609;SDS011;6876;50.788;4.940;2023-07-13T13:37:21;7.18;;;1.85;;
13609;SDS011;6876;50.788;4.940;2023-07-13T13:40:14;4.95;;;3.08;;
13609;SDS011;6876;50.788;4.940;2023-07-13T13:43:04;17.88;;;16.55;;
13609;SDS011;6876;50.788;4.940;2023-07-13T13:46:02;17.98;;;16.50;;
13609;SDS011;6876;50.788;4.940;2023-07-13T13:48:59;40.03;;;37.53;;
13609;SDS011;6876;50.788;4.940;2023-07-13T13:51:48;17.02;;;15.75;;
13609;SDS011;6876;50.788;4.940;2023-07-13T13:54:35;13.25;;;12.45;;
13609;SDS011;6876;50.788;4.940;2023-07-13T13:57:23;9.85;;;9.27;;
13609;SDS011;6876;50.788;4.940;2023-07-13T14:00:11;23.65;;;22.30;;
13609;SDS011;6876;50.788;4.940;2023-07-13T14:03:03;15.90;;;14.88;;
13609;SDS011;6876;50.788;4.940;2023-07-13T14:05:52;17.85;;;16.52;;
13609;SDS011;6876;50.788;4.940;2023-07-13T14:08:42;37.97;;;35.88;;
13609;SDS011;6876;50.788;4.940;2023-07-13T14:11:30;17.45;;;16.42;;
13609;SDS011;6876;50.788;4.940;2023-07-13T14:14:19;14.18;;;13.25;;
13609;SDS011;6876;50.788;4.940;2023-07-13T14:17:13;12.20;;;11.43;;
13609;SDS011;6876;50.788;4.940;2023-07-13T14:20:10;7.85;;;7.20;;
13609;SDS011;6876;50.788;4.940;2023-07-13T14:22:59;4.40;;;3.28;;
13609;SDS011;6876;50.788;4.940;2023-07-13T14:25:46;7.32;;;3.95;;
13609;SDS011;6876;50.788;4.940;2023-07-13T14:28:33;6.07;;;5.50;;
13609;SDS011;6876;50.788;4.940;2023-07-13T14:31:21;6.10;;;3.85;;
13609;SDS011;6876;50.788;4.940;2023-07-13T14:34:10;4.03;;;3.03;;
13609;SDS011;6876;50.788;4.940;2023-07-13T14:37:01;5.28;;;2.67;;
13609;SDS011;6876;50.788;4.940;2023-07-13T14:39:49;3.75;;;1.90;;
13609;SDS011;6876;50.788;4.940;2023-07-13T14:42:38;3.00;;;1.70;;
13609;SDS011;6876;50.788;4.940;2023-07-13T14:45:26;2.45;;;1.67;;
13609;SDS011;6876;50.788;4.940;2023-07-13T14:48:17;7.30;;;1.80;;
13609;SDS011;6876;50.788;4.940;2023-07-13T14:51:07;2.78;;;1.95;;
13609;SDS011;6876;50.788;4.940;2023-07-13T14:53:57;3.78;;;1.70;;
13609;SDS011;6876;50.788;4.940;2023-07-13T14:56:44;5.78;;;1.73;;
13609;SDS011;6876;50.788;4.940;2023-07-13T14:59:31;2.28;;;1.30;;
13609;SDS011;6876;50.788;4.940;2023-07-13T15:02:22;2.63;;;1.45;;
13609;SDS011;6876;50.788;4.940;2023-07-13T15:05:15;4.90;;;1.90;;
13609;SDS011;6876;50.788;4.940;2023-07-13T15:08:04;2.40;;;1.40;;
13609;SDS011;6876;50.788;4.940;2023-07-13T15:10:53;2.20;;;1.23;;
13609;SDS011;6876;50.788;4.940;2023-07-13T15:13:43;3.10;;;1.40;;
13609;SDS011;6876;50.788;4.940;2023-07-13T15:16:31;3.50;;;1.27;;
13609;SDS011;6876;50.788;4.940;2023-07-13T15:19:20;2.88;;;1.48;;
13609;SDS011;6876;50.788;4.940;2023-07-13T15:22:08;3.38;;;1.65;;
13609;SDS011;6876;50.788;4.940;2023-07-13T15:24:56;2.65;;;1.40;;
13609;SDS011;6876;50.788;4.940;2023-07-13T15:27:45;5.90;;;1.70;;
13609;SDS011;6876;50.788;4.940;2023-07-13T15:30:34;2.80;;;1.48;;
13609;SDS011;6876;50.788;4.940;2023-07-13T15:33:27;5.88;;;1.45;;
13609;SDS011;6876;50.788;4.940;2023-07-13T15:36:16;2.40;;;1.60;;
13609;SDS011;6876;50.788;4.940;2023-07-13T15:39:04;4.75;;;1.50;;
13609;SDS011;6876;50.788;4.940;2023-07-13T15:41:51;4.18;;;1.70;;
13609;SDS011;6876;50.788;4.940;2023-07-13T15:44:41;3.15;;;1.50;;
13609;SDS011;6876;50.788;4.940;2023-07-13T15:47:28;3.30;;;1.60;;
13609;SDS011;6876;50.788;4.940;2023-07-13T15:50:16;29.20;;;3.42;;
13609;SDS011;6876;50.788;4.940;2023-07-13T15:53:05;4.68;;;1.70;;
13609;SDS011;6876;50.788;4.940;2023-07-13T15:55:56;3.50;;;1.60;;
13609;SDS011;6876;50.788;4.940;2023-07-13T15:58:44;3.83;;;1.70;;
13609;SDS011;6876;50.788;4.940;2023-07-13T16:01:33;4.72;;;1.52;;
13609;SDS011;6876;50.788;4.940;2023-07-13T16:04:20;2.15;;;1.65;;
13609;SDS011;6876;50.788;4.940;2023-07-13T16:07:08;3.10;;;1.60;;
13609;SDS011;6876;50.788;4.940;2023-07-13T16:10:02;2.80;;;1.70;;
13609;SDS011;6876;50.788;4.940;2023-07-13T16:12:50;3.10;;;2.10;;
13609;SDS011;6876;50.788;4.940;2023-07-13T16:15:38;3.45;;;2.20;;
13609;SDS011;6876;50.788;4.940;2023-07-13T16:18:31;2.88;;;1.85;;
13609;SDS011;6876;50.788;4.940;2023-07-13T16:21:18;4.55;;;2.17;;
13609;SDS011;6876;50.788;4.940;2023-07-13T16:24:08;4.15;;;2.90;;
13609;SDS011;6876;50.788;4.940;2023-07-13T16:27:03;4.20;;;3.80;;
13609;SDS011;6876;50.788;4.940;2023-07-13T16:29:52;4.03;;;2.75;;
13609;SDS011;6876;50.788;4.940;2023-07-13T16:32:39;3.97;;;2.28;;
13609;SDS011;6876;50.788;4.940;2023-07-13T16:35:27;3.20;;;1.83;;
13609;SDS011;6876;50.788;4.940;2023-07-13T16:38:17;3.17;;;1.88;;
13609;SDS011;6876;50.788;4.940;2023-07-13T16:41:05;2.00;;;1.67;;
13609;SDS011;6876;50.788;4.940;2023-07-13T16:43:53;3.13;;;1.75;;
13609;SDS011;6876;50.788;4.940;2023-07-13T16:46:40;2.45;;;1.60;;
13609;SDS011;6876;50.788;4.940;2023-07-13T16:49:28;4.50;;;1.80;;
13609;SDS011;6876;50.788;4.940;2023-07-13T16:52:18;3.63;;;2.03;;
13609;SDS011;6876;50.788;4.940;2023-07-13T16:55:07;3.95;;;2.08;;
13609;SDS011;6876;50.788;4.940;2023-07-13T16:57:57;5.65;;;2.10;;
13609;SDS011;6876;50.788;4.940;2023-07-13T17:00:48;3.03;;;1.83;;
13609;SDS011;6876;50.788;4.940;2023-07-13T17:03:37;2.33;;;1.90;;
13609;SDS011;6876;50.788;4.940;2023-07-13T17:06:24;3.78;;;2.17;;
13609;SDS011;6876;50.788;4.940;2023-07-13T17:09:18;4.90;;;1.90;;